Time;durP1;ratioP1;P1;durP2;ratioP2;P2;SDS_P1;SDS_P2;PMS_P1;PMS_P2;Temp;Humidity;BMP_temperature;BMP_pressure;BME280_temperature;BME280_humidity;BME280_pressure;Samples;Min_cycle;Max_cycle;Signal;HPM_P1;HPM_P2
2023/11/26 00:02:22;;;;;;;27.65;12.63;;;;;;;-0.32;100.00;101436.25;5044316;28;20078;-75
2023/11/26 00:04:48;;;;;;;27.85;12.23;;;;;;;-0.37;100.00;101431.66;5042821;28;20085;-75
2023/11/26 00:07:13;;;;;;;25.63;11.73;;;;;;;-0.45;100.00;101439.81;5045294;28;20064;-75
2023/11/26 00:09:39;;;;;;;28.30;12.05;;;;;;;-0.47;100.00;101434.53;5041310;28;20109;-75
2023/11/26 00:12:07;;;;;;;25.88;11.93;;;;;;;-0.47;100.00;101439.75;5045179;28;20428;-75
2023/11/26 00:14:33;;;;;;;27.38;12.00;;;;;;;-0.49;100.00;101436.16;5042524;28;20120;-76
2023/11/26 00:16:58;;;;;;;29.35;13.10;;;;;;;-0.41;100.00;101437.53;5044138;28;20458;-75
2023/11/26 00:19:24;;;;;;;26.77;13.00;;;;;;;-0.37;100.00;101439.47;5042438;28;20112;-75
2023/11/26 00:21:49;;;;;;;25.73;12.07;;;;;;;-0.42;100.00;101435.72;5042637;28;20473;-76
2023/11/26 00:24:15;;;;;;;27.58;12.52;;;;;;;-0.49;100.00;101441.38;5044890;28;20070;-75
2023/11/26 00:26:40;;;;;;;29.13;12.75;;;;;;;-0.50;100.00;101444.75;5041666;28;20021;-74
2023/11/26 00:29:05;;;;;;;26.63;12.82;;;;;;;-0.56;100.00;101436.63;5044900;28;20029;-74
2023/11/26 00:31:31;;;;;;;28.60;13.98;;;;;;;-0.62;100.00;101431.06;5041270;28;20036;-75
2023/11/26 00:33:57;;;;;;;29.90;14.35;;;;;;;-0.60;100.00;101432.91;5043438;28;20027;-74
2023/11/26 00:36:22;;;;;;;27.17;13.27;;;;;;;-0.69;100.00;101435.00;5043686;28;20017;-71
2023/11/26 00:38:48;;;;;;;30.73;16.52;;;;;;;-0.67;100.00;101432.47;5042138;28;20440;-71
2023/11/26 00:41:13;;;;;;;31.48;17.05;;;;;;;-0.67;100.00;101437.69;5044919;28;20487;-72
2023/11/26 00:43:39;;;;;;;29.98;15.18;;;;;;;-0.63;100.00;101439.66;5041548;28;20389;-73
2023/11/26 00:46:05;;;;;;;28.83;14.73;;;;;;;-0.58;100.00;101433.03;5044354;28;20036;-73
2023/11/26 00:48:30;;;;;;;31.05;15.13;;;;;;;-0.65;100.00;101441.28;5042157;28;20384;-73
2023/11/26 00:50:56;;;;;;;30.55;14.48;;;;;;;-0.62;100.00;101431.06;5043261;28;20392;-70
2023/11/26 00:53:21;;;;;;;29.00;12.95;;;;;;;-0.44;100.00;101426.94;5043434;28;20025;-73
2023/11/26 00:55:47;;;;;;;30.38;12.45;;;;;;;-0.29;100.00;101433.81;5041593;28;20055;-73
2023/11/26 00:58:13;;;;;;;29.80;13.35;;;;;;;-0.24;100.00;101430.69;5044806;28;20025;-71
2023/11/26 01:00:38;;;;;;;31.20;12.85;;;;;;;-0.18;100.00;101428.44;5037018;28;20381;-71
2023/11/26 01:03:05;;;;;;;33.03;12.50;;;;;;;-0.14;100.00;101429.50;5043986;28;20021;-73
2023/11/26 01:05:30;;;;;;;28.90;11.93;;;;;;;-0.06;100.00;101424.75;5042257;28;20033;-72
2023/11/26 01:07:56;;;;;;;29.35;12.32;;;;;;;-0.03;100.00;101425.81;5042702;28;20021;-71
2023/11/26 01:10:21;;;;;;;28.35;11.63;;;;;;;-0.05;100.00;101427.44;5043648;28;20079;-72
2023/11/26 01:12:47;;;;;;;28.33;11.82;;;;;;;-0.04;100.00;101426.63;5041417;28;20037;-73
2023/11/26 01:15:14;;;;;;;31.00;12.18;;;;;;;-0.04;100.00;101433.53;5044373;28;20507;-73
2023/11/26 01:17:39;;;;;;;30.80;11.90;;;;;;;-0.03;100.00;101431.03;5037190;28;20031;-71
2023/11/26 01:20:05;;;;;;;28.15;11.48;;;;;;;-0.01;100.00;101433.72;5043422;28;20104;-71
2023/11/26 01:22:31;;;;;;;31.13;11.95;;;;;;;-0.03;100.00;101436.22;5040407;28;20480;-71
2023/11/26 01:24:57;;;;;;;29.98;11.45;;;;;;;-0.06;100.00;101430.84;5042885;28;20036;-71
2023/11/26 01:27:23;;;;;;;27.42;10.88;;;;;;;-0.05;100.00;101435.22;5042890;28;20392;-73
2023/11/26 01:29:48;;;;;;;29.20;11.82;;;;;;;-0.08;100.00;101432.44;5041746;28;20042;-71
2023/11/26 01:32:13;;;;;;;30.35;11.38;;;;;;;-0.13;100.00;101431.31;5044145;28;20029;-72
2023/11/26 01:34:39;;;;;;;28.30;11.05;;;;;;;-0.08;100.00;101434.16;5040768;28;20022;-72
2023/11/26 01:37:05;;;;;;;29.25;11.45;;;;;;;-0.04;100.00;101434.44;5043549;28;20056;-72
2023/11/26 01:39:30;;;;;;;30.10;11.80;;;;;;;0.04;100.00;101433.97;5041865;28;20056;-72
2023/11/26 01:41:56;;;;;;;30.63;12.02;;;;;;;0.00;100.00;101435.50;5042623;28;20042;-76
2023/11/26 01:44:21;;;;;;;32.63;12.40;;;;;;;-0.07;100.00;101434.25;5042893;28;20468;-73
2023/11/26 01:46:46;;;;;;;29.63;11.73;;;;;;;-0.13;100.00;101431.31;5041565;28;20030;-72
2023/11/26 01:49:12;;;;;;;28.08;11.40;;;;;;;-0.11;100.00;101429.69;5044057;28;20365;-74
2023/11/26 01:51:38;;;;;;;35.28;12.30;;;;;;;-0.02;100.00;101435.41;5039372;28;20072;-73
2023/11/26 01:54:04;;;;;;;32.42;11.45;;;;;;;0.05;100.00;101438.38;5043776;28;20119;-72
2023/11/26 01:56:30;;;;;;;27.58;10.65;;;;;;;0.10;100.00;101434.31;5041491;28;20567;-76
2023/11/26 01:58:56;;;;;;;27.75;10.32;;;;;;;0.20;100.00;101438.31;5042322;28;20041;-76
2023/11/26 02:01:22;;;;;;;28.92;10.88;;;;;;;0.24;100.00;101433.38;5042971;28;20033;-77
2023/11/26 02:03:48;;;;;;;28.70;10.68;;;;;;;0.29;100.00;101439.75;5041028;28;20059;-75
2023/11/26 02:06:13;;;;;;;30.15;11.13;;;;;;;0.34;100.00;101442.59;5044140;28;20029;-73
2023/11/26 02:08:39;;;;;;;28.92;11.00;;;;;;;0.36;100.00;101440.06;5036325;28;20103;-73
2023/11/26 02:11:05;;;;;;;30.17;11.45;;;;;;;0.29;100.00;101442.34;5043377;28;20064;-77
2023/11/26 02:13:31;;;;;;;29.38;11.35;;;;;;;0.36;100.00;101442.69;5041626;28;20025;-73
2023/11/26 02:15:56;;;;;;;29.80;11.20;;;;;;;0.40;100.00;101448.13;5042047;28;20026;-75
2023/11/26 02:18:22;;;;;;;30.80;12.30;;;;;;;0.44;100.00;101441.41;5042659;28;20357;-77
2023/11/26 02:20:48;;;;;;;29.98;12.13;;;;;;;0.46;100.00;101452.78;5040928;28;20117;-73
2023/11/26 02:23:13;;;;;;;32.20;12.20;;;;;;;0.49;100.00;101445.13;5043745;28;20021;-76
2023/11/26 02:25:39;;;;;;;29.35;12.23;;;;;;;0.56;100.00;101452.47;5036232;28;20036;-71
2023/11/26 02:28:08;;;;;;;32.83;12.88;;;;;;;0.64;100.00;101448.59;5043192;28;20032;-71
2023/11/26 02:30:34;;;;;;;30.67;13.05;;;;;;;0.73;100.00;101452.47;5040912;28;20494;-71
2023/11/26 02:32:59;;;;;;;32.17;12.80;;;;;;;0.71;100.00;101452.38;5043607;28;20120;-70
2023/11/26 02:35:26;;;;;;;28.25;11.90;;;;;;;0.69;100.00;101447.09;5045852;28;20123;-72
2023/11/26 02:37:52;;;;;;;30.00;12.20;;;;;;;0.67;100.00;101456.56;5044758;28;20400;-71
2023/11/26 02:40:19;;;;;;;28.38;11.77;;;;;;;0.72;100.00;101455.91;5046579;28;20029;-72
2023/11/26 02:42:45;;;;;;;27.73;11.75;;;;;;;0.73;100.00;101455.06;5043893;28;20030;-71
2023/11/26 02:45:11;;;;;;;30.00;11.80;;;;;;;0.69;100.00;101452.31;5046937;28;20032;-71
2023/11/26 02:47:37;;;;;;;30.92;11.60;;;;;;;0.68;100.00;101457.44;5044114;28;20026;-71
2023/11/26 02:50:04;;;;;;;30.25;12.05;;;;;;;0.64;100.00;101452.88;5046191;28;20040;-73
2023/11/26 02:52:29;;;;;;;28.48;11.70;;;;;;;0.57;100.00;101462.06;5044918;28;20060;-72
2023/11/26 02:54:55;;;;;;;29.88;11.65;;;;;;;0.52;100.00;101458.31;5044731;28;20456;-72
2023/11/26 02:57:20;;;;;;;30.40;12.10;;;;;;;0.56;100.00;101457.66;5046042;28;20120;-72
2023/11/26 02:59:46;;;;;;;28.67;12.40;;;;;;;0.56;100.00;101459.38;5043742;28;20065;-71
2023/11/26 03:02:14;;;;;;;30.48;11.98;;;;;;;0.62;100.00;101455.38;5047066;28;20052;-71
2023/11/26 03:04:49;;;;;;;28.92;12.55;;;;;;;0.76;100.00;101456.16;5039358;28;20041;-74
2023/11/26 03:07:20;;;;;;;28.90;13.15;;;;;;;0.81;100.00;101454.69;5039872;28;20033;-72
2023/11/26 03:13:06;;;;;;;28.92;13.05;;;;;;;0.94;100.00;101443.22;5006454;28;20440;-76
2023/11/26 03:15:33;;;;;;;30.42;13.52;;;;;;;1.03;100.00;101442.81;5044553;28;20040;-72
2023/11/26 03:17:58;;;;;;;31.77;13.45;;;;;;;1.10;100.00;101444.03;5044357;28;20041;-73
2023/11/26 03:20:26;;;;;;;33.38;13.70;;;;;;;1.14;100.00;101446.88;5044334;28;20147;-77
2023/11/26 03:22:53;;;;;;;29.20;13.45;;;;;;;1.16;100.00;101444.34;5045273;28;20031;-72
2023/11/26 03:25:18;;;;;;;29.10;13.48;;;;;;;1.17;100.00;101451.34;5042194;28;20160;-76
2023/11/26 03:27:44;;;;;;;29.63;13.23;;;;;;;1.17;100.00;101454.84;5046525;28;20111;-74
2023/11/26 03:30:09;;;;;;;30.70;13.07;;;;;;;1.16;100.00;101449.56;5042714;28;20025;-77
2023/11/26 03:32:35;;;;;;;28.83;13.38;;;;;;;1.15;100.00;101450.34;5045505;28;20083;-76
2023/11/26 03:35:00;;;;;;;28.48;13.10;;;;;;;1.11;100.00;101445.84;5044128;28;20025;-77
2023/11/26 03:37:26;;;;;;;29.17;12.70;;;;;;;1.13;100.00;101446.78;5044171;28;20472;-75
2023/11/26 03:39:52;;;;;;;30.58;12.65;;;;;;;1.09;100.00;101437.91;5045055;28;20040;-77
2023/11/26 03:42:17;;;;;;;30.42;12.90;;;;;;;1.09;100.00;101447.44;5043058;28;20068;-76
2023/11/26 03:44:43;;;;;;;29.02;13.07;;;;;;;1.06;100.00;101457.69;5045916;28;20040;-77
2023/11/26 03:47:09;;;;;;;28.35;12.80;;;;;;;1.03;100.00;101458.44;5042558;28;20025;-73
2023/11/26 03:49:34;;;;;;;27.33;12.48;;;;;;;1.02;100.00;101454.94;5045310;28;20440;-72
2023/11/26 03:52:00;;;;;;;28.23;12.60;;;;;;;1.02;100.00;101456.63;5043650;28;20033;-73
2023/11/26 03:54:25;;;;;;;29.50;12.50;;;;;;;0.98;100.00;101457.31;5043997;28;20029;-73
2023/11/26 03:56:51;;;;;;;27.48;12.30;;;;;;;1.00;100.00;101455.66;5045050;28;20029;-73
2023/11/26 03:59:17;;;;;;;28.38;12.40;;;;;;;0.99;100.00;101459.06;5042418;28;20087;-73
2023/11/26 04:01:42;;;;;;;31.92;13.00;;;;;;;1.02;100.00;101454.03;5045780;28;20029;-72
2023/11/26 04:04:08;;;;;;;27.48;12.60;;;;;;;1.10;100.00;101460.53;5042645;28;20021;-71
2023/11/26 04:06:34;;;;;;;29.10;12.68;;;;;;;1.14;100.00;101465.09;5044583;28;20026;-71
2023/11/26 04:08:59;;;;;;;29.42;13.10;;;;;;;1.17;100.00;101452.25;5043514;28;20326;-72
2023/11/26 04:11:25;;;;;;;28.15;13.40;;;;;;;1.26;100.00;101457.03;5043412;28;20030;-72
2023/11/26 04:13:50;;;;;;;27.17;12.93;;;;;;;1.34;100.00;101463.53;5044519;28;20052;-73
2023/11/26 04:16:18;;;;;;;28.30;13.32;;;;;;;1.37;100.00;101453.28;5042079;28;20033;-73
2023/11/26 04:18:44;;;;;;;28.70;13.05;;;;;;;1.41;100.00;101451.69;5045205;28;20060;-72
2023/11/26 04:21:10;;;;;;;29.95;13.32;;;;;;;1.48;100.00;101458.13;5037622;28;20041;-72
2023/11/26 04:23:36;;;;;;;28.05;12.63;;;;;;;1.48;100.00;101450.31;5044822;28;20036;-73
2023/11/26 04:26:01;;;;;;;27.75;12.82;;;;;;;1.50;100.00;101453.88;5042849;28;20028;-73
2023/11/26 04:28:26;;;;;;;28.63;12.98;;;;;;;1.50;100.00;101451.28;5043238;28;20433;-72
2023/11/26 04:30:52;;;;;;;27.60;12.55;;;;;;;1.51;100.00;101456.56;5045276;28;20114;-73
2023/11/26 04:33:18;;;;;;;28.88;13.38;;;;;;;1.55;100.00;101460.25;5041784;28;20033;-72
2023/11/26 04:35:45;;;;;;;27.33;13.10;;;;;;;1.54;100.00;101458.44;5044986;28;20053;-73
2023/11/26 04:38:10;;;;;;;27.25;12.40;;;;;;;1.56;100.00;101460.31;5037611;28;20034;-73
2023/11/26 04:40:36;;;;;;;30.20;13.02;;;;;;;1.60;100.00;101458.75;5043010;28;20064;-71
2023/11/26 04:43:02;;;;;;;28.45;12.68;;;;;;;1.66;100.00;101460.78;5042754;28;20087;-70
2023/11/26 04:45:27;;;;;;;28.70;12.63;;;;;;;1.70;100.00;101466.25;5043134;28;20040;-73
2023/11/26 04:47:53;;;;;;;28.52;12.30;;;;;;;1.72;100.00;101469.81;5043779;28;20039;-73
2023/11/26 04:50:18;;;;;;;28.10;12.70;;;;;;;1.80;100.00;101471.91;5041843;28;20028;-71
2023/11/26 04:52:44;;;;;;;26.73;11.95;;;;;;;1.83;100.00;101467.72;5044684;28;20033;-73
2023/11/26 04:55:09;;;;;;;29.38;12.30;;;;;;;1.83;100.00;101477.28;5040655;28;20435;-72
2023/11/26 04:57:35;;;;;;;27.88;11.95;;;;;;;1.87;100.00;101482.72;5044011;28;20029;-73
2023/11/26 05:00:01;;;;;;;28.95;12.65;;;;;;;1.87;100.00;101474.00;5042454;28;20036;-76
2023/11/26 05:02:31;;;;;;;27.55;11.88;;;;;;;1.87;100.00;101479.22;5042492;28;20083;-76
2023/11/26 05:04:57;;;;;;;28.50;12.20;;;;;;;1.89;100.00;101485.38;5043336;28;20029;-76
2023/11/26 05:07:22;;;;;;;28.02;12.35;;;;;;;1.92;100.00;101478.63;5041979;28;20497;-76
2023/11/26 05:09:47;;;;;;;27.17;12.27;;;;;;;1.99;100.00;101482.41;5044126;28;20036;-73
2023/11/26 05:12:13;;;;;;;27.98;12.15;;;;;;;2.03;100.00;101481.75;5041311;28;20025;-75
2023/11/26 05:14:38;;;;;;;29.42;12.35;;;;;;;2.09;100.00;101471.63;5026656;28;20120;-77
2023/11/26 05:17:04;;;;;;;27.08;11.82;;;;;;;2.16;100.00;101472.81;5041665;28;20043;-76
2023/11/26 05:19:29;;;;;;;26.08;11.73;;;;;;;2.23;100.00;101471.41;5042076;28;20091;-77
2023/11/26 05:21:55;;;;;;;27.33;11.27;;;;;;;2.30;100.00;101470.88;5043065;28;20025;-77
2023/11/26 05:24:20;;;;;;;28.52;11.15;;;;;;;2.31;100.00;101464.81;5041711;28;20391;-74
2023/11/26 05:26:47;;;;;;;27.17;11.60;;;;;;;2.34;100.00;101464.97;5044476;28;20024;-74
2023/11/26 05:29:13;;;;;;;27.30;11.15;;;;;;;2.34;100.00;101475.41;5041092;28;20033;-73
2023/11/26 05:31:38;;;;;;;27.33;10.93;;;;;;;2.34;100.00;101466.69;5042632;28;20071;-76
2023/11/26 05:34:03;;;;;;;26.05;10.82;;;;;;;2.33;100.00;101472.72;5041869;28;20373;-73
2023/11/26 05:36:29;;;;;;;27.50;11.13;;;;;;;2.29;100.00;101469.09;5042388;28;20035;-76
2023/11/26 05:38:55;;;;;;;29.63;11.10;;;;;;;2.25;100.00;101472.38;5043142;28;20491;-75
2023/11/26 05:41:23;;;;;;;27.95;10.60;;;;;;;2.22;100.00;101472.22;5041179;28;20033;-75
2023/11/26 05:43:48;;;;;;;27.42;11.10;;;;;;;2.19;100.00;101472.09;5043741;28;20025;-75
2023/11/26 05:46:14;;;;;;;27.60;10.90;;;;;;;2.18;100.00;101471.16;5041088;28;20092;-76
2023/11/26 05:48:40;;;;;;;26.60;10.77;;;;;;;2.16;100.00;101467.59;5043672;28;20408;-76
2023/11/26 05:51:05;;;;;;;27.55;10.95;;;;;;;2.15;100.00;101468.41;5041293;28;20029;-77
2023/11/26 05:53:31;;;;;;;27.80;11.60;;;;;;;2.14;100.00;101466.66;5042751;28;20021;-75
2023/11/26 05:55:56;;;;;;;25.70;10.90;;;;;;;2.12;100.00;101470.00;5041187;28;20049;-75
2023/11/26 05:58:22;;;;;;;27.63;11.20;;;;;;;2.09;100.00;101468.13;5041262;28;20075;-76
2023/11/26 06:00:47;;;;;;;24.73;10.68;;;;;;;2.10;100.00;101467.31;5043855;28;20380;-76
2023/11/26 06:03:12;;;;;;;26.88;11.07;;;;;;;2.09;100.00;101468.13;5040504;28;20101;-76
2023/11/26 06:05:38;;;;;;;26.42;11.68;;;;;;;2.09;100.00;101471.63;5043433;28;20108;-75
2023/11/26 06:08:03;;;;;;;28.95;11.27;;;;;;;2.11;100.00;101476.03;5042268;28;20037;-76
2023/11/26 06:10:30;;;;;;;28.40;11.02;;;;;;;2.15;100.00;101470.13;5046284;28;20108;-75
2023/11/26 06:12:55;;;;;;;28.52;11.07;;;;;;;2.22;100.00;101467.00;5046262;28;20052;-72
2023/11/26 06:15:21;;;;;;;26.77;11.05;;;;;;;2.26;100.00;101468.94;5045005;28;20025;-72
2023/11/26 06:17:46;;;;;;;28.08;10.73;;;;;;;2.31;100.00;101482.22;5047743;28;20032;-73
2023/11/26 06:20:12;;;;;;;27.50;11.68;;;;;;;2.33;100.00;101486.69;5040117;28;20362;-72
2023/11/26 06:22:37;;;;;;;26.48;11.50;;;;;;;2.31;100.00;101482.22;5046935;28;20029;-73
2023/11/26 06:25:05;;;;;;;28.58;11.15;;;;;;;2.33;100.00;101471.03;5043757;28;20025;-71
2023/11/26 06:27:31;;;;;;;26.88;10.88;;;;;;;2.39;100.00;101481.75;5046025;28;20540;-71
2023/11/26 06:29:56;;;;;;;28.92;11.93;;;;;;;2.43;100.00;101482.78;5045916;28;20033;-71
2023/11/26 06:32:22;;;;;;;27.55;12.23;;;;;;;2.44;100.00;101480.25;5044484;28;20385;-71
2023/11/26 06:34:47;;;;;;;27.40;11.43;;;;;;;2.48;100.00;101480.41;5047310;28;20037;-71
2023/11/26 06:37:12;;;;;;;28.40;11.57;;;;;;;2.53;100.00;101468.47;5043733;28;20080;-72
2023/11/26 06:39:38;;;;;;;24.98;11.35;;;;;;;2.54;100.00;101475.47;5046714;28;20029;-72
2023/11/26 06:42:05;;;;;;;27.67;11.65;;;;;;;2.53;100.00;101478.91;5045171;28;20048;-71
2023/11/26 06:44:30;;;;;;;25.85;11.25;;;;;;;2.50;100.00;101477.03;5045423;28;20366;-71
2023/11/26 06:46:55;;;;;;;26.15;11.90;;;;;;;2.47;100.00;101478.63;5045753;28;20075;-71
2023/11/26 06:49:21;;;;;;;26.95;12.38;;;;;;;2.44;100.00;101475.03;5044255;28;20032;-71
2023/11/26 06:51:47;;;;;;;26.55;12.30;;;;;;;2.44;100.00;101479.34;5046947;28;20455;-72
2023/11/26 06:54:12;;;;;;;27.00;12.50;;;;;;;2.46;100.00;101471.59;5043547;28;20033;-75
2023/11/26 06:56:37;;;;;;;26.77;12.05;;;;;;;2.49;100.00;101475.28;5046342;28;20029;-74
2023/11/26 06:59:03;;;;;;;27.80;12.70;;;;;;;2.50;100.00;101474.41;5044499;28;20029;-74
2023/11/26 07:01:28;;;;;;;28.08;13.10;;;;;;;2.52;100.00;101478.03;5044778;28;20025;-72
2023/11/26 07:03:54;;;;;;;26.23;12.63;;;;;;;2.53;100.00;101476.28;5045943;28;20468;-74
2023/11/26 07:06:19;;;;;;;27.60;13.32;;;;;;;2.57;100.00;101473.88;5043371;28;20030;-76
2023/11/26 07:08:44;;;;;;;27.13;13.50;;;;;;;2.62;100.00;101474.09;5046931;28;20127;-76
2023/11/26 07:11:17;;;;;;;31.45;14.77;;;;;;;2.68;100.00;101482.25;5043658;28;20453;-73
2023/11/26 07:13:42;;;;;;;;;;;;;;;2.72;100.00;101478.97;5039565;28;20434;-74
2023/11/26 07:16:08;;;;;;;29.42;14.82;;;;;;;2.74;100.00;101469.47;5045820;28;19917;-72
2023/11/26 07:18:33;;;;;;;29.40;14.77;;;;;;;2.78;100.00;101474.00;5043900;28;20108;-77
2023/11/26 07:20:59;;;;;;;30.33;15.52;;;;;;;2.79;100.00;101475.78;5044422;28;20115;-77
2023/11/26 07:23:24;;;;;;;32.28;15.38;;;;;;;2.84;100.00;101469.88;5045522;28;20069;-77
2023/11/26 07:25:50;;;;;;;31.85;15.60;;;;;;;2.84;100.00;101460.34;5043232;28;20026;-73
2023/11/26 07:28:15;;;;;;;31.70;15.68;;;;;;;2.87;100.00;101468.31;5046311;28;20032;-73
2023/11/26 07:30:42;;;;;;;30.83;15.80;;;;;;;2.90;100.00;101470.19;5043099;28;20037;-75
2023/11/26 07:33:07;;;;;;;30.20;16.08;;;;;;;2.92;100.00;101482.47;5045428;28;20052;-76
2023/11/26 07:35:33;;;;;;;31.33;15.65;;;;;;;2.93;100.00;101476.41;5043898;28;20024;-76
2023/11/26 07:38:03;;;;;;;32.28;16.35;;;;;;;2.97;100.00;101482.66;5044401;28;20029;-75
2023/11/26 07:40:29;;;;;;;30.30;16.38;;;;;;;2.97;100.00;101485.28;5044296;28;20448;-76
2023/11/26 07:42:55;;;;;;;32.75;15.85;;;;;;;2.96;100.00;101481.78;5043513;28;20061;-76
2023/11/26 07:45:20;;;;;;;34.75;16.48;;;;;;;2.97;100.00;101482.66;5045517;28;20419;-75
2023/11/26 07:47:45;;;;;;;31.13;15.73;;;;;;;2.97;100.00;101490.50;5042557;28;20032;-76
2023/11/26 07:50:11;;;;;;;31.27;15.35;;;;;;;3.00;100.00;101487.13;5045603;28;20032;-75
2023/11/26 07:52:37;;;;;;;32.72;16.17;;;;;;;3.02;100.00;101485.50;5043353;28;20383;-75
2023/11/26 07:55:04;;;;;;;29.25;15.38;;;;;;;3.02;100.00;101481.16;5044125;28;20057;-76
2023/11/26 07:57:30;;;;;;;30.75;16.23;;;;;;;3.05;100.00;101481.31;5043973;28;20029;-75
2023/11/26 08:00:00;;;;;;;30.75;15.68;;;;;;;3.09;100.00;101478.00;5043585;28;20030;-75
2023/11/26 08:02:29;;;;;;;32.97;16.60;;;;;;;3.12;100.00;101478.16;5044521;28;20369;-75
2023/11/26 08:04:55;;;;;;;31.67;16.02;;;;;;;3.14;100.00;101484.31;5043044;28;20073;-75
2023/11/26 08:07:24;;;;;;;31.23;16.15;;;;;;;3.15;100.00;101482.63;5045478;28;20021;-76
2023/11/26 08:09:53;;;;;;;29.35;16.20;;;;;;;3.16;100.00;101478.28;5042192;28;20033;-75
2023/11/26 08:12:24;;;;;;;31.83;15.90;;;;;;;3.19;100.00;101484.56;5045278;28;20029;-77
2023/11/26 08:14:53;;;;;;;28.85;16.05;;;;;;;3.21;100.00;101484.63;5042185;28;20025;-71
2023/11/26 08:17:19;;;;;;;34.13;16.98;;;;;;;3.24;100.00;101484.75;5045320;28;20040;-70
2023/11/26 08:19:45;;;;;;;29.67;16.55;;;;;;;3.28;100.00;101484.06;5041841;28;20424;-71
2023/11/26 08:22:11;;;;;;;31.40;15.98;;;;;;;3.31;100.00;101492.91;5044791;28;20480;-72
2023/11/26 08:24:39;;;;;;;33.13;17.15;;;;;;;3.37;100.00;101494.91;5042687;28;20039;-71
2023/11/26 08:27:06;;;;;;;33.80;18.42;;;;;;;3.44;100.00;101488.25;5043913;28;20036;-71
2023/11/26 08:29:32;;;;;;;33.55;18.83;;;;;;;3.50;100.00;101493.72;5042950;28;20036;-71
2023/11/26 08:31:58;;;;;;;35.33;19.25;;;;;;;3.56;100.00;101493.13;5042766;28;20091;-70
2023/11/26 08:34:24;;;;;;;35.63;20.27;;;;;;;3.60;100.00;101492.41;5044217;28;20056;-71
2023/11/26 08:36:51;;;;;;;35.15;20.65;;;;;;;3.65;100.00;101490.88;5041785;28;20105;-72
2023/11/26 08:39:26;;;;;;;39.70;21.50;;;;;;;3.70;100.00;101484.13;5027338;28;20106;-72
2023/11/26 08:41:52;;;;;;;34.47;21.35;;;;;;;3.76;100.00;101491.34;5038604;28;20087;-71
2023/11/26 08:44:18;;;;;;;36.58;21.88;;;;;;;3.80;100.00;101490.63;5044853;28;20037;-72
2023/11/26 08:46:43;;;;;;;35.88;22.58;;;;;;;3.85;100.00;101483.88;5037520;28;20029;-71
2023/11/26 08:49:09;;;;;;;35.63;22.27;;;;;;;3.91;100.00;101480.63;5044411;28;20067;-71
2023/11/26 08:51:36;;;;;;;35.92;23.00;;;;;;;3.93;100.00;101479.88;5042310;28;20103;-72
2023/11/26 08:54:02;;;;;;;35.50;22.15;;;;;;;3.97;100.00;101483.50;5043280;28;20033;-72
2023/11/26 08:56:28;;;;;;;39.15;21.98;;;;;;;4.01;100.00;101482.81;5043024;28;20055;-72
2023/11/26 08:58:54;;;;;;;34.33;21.98;;;;;;;4.02;100.00;101484.59;5041969;28;20044;-73
2023/11/26 09:01:20;;;;;;;35.17;21.88;;;;;;;4.08;100.00;101481.31;5044597;28;20033;-73
2023/11/26 09:03:46;;;;;;;33.20;21.42;;;;;;;4.10;100.00;101491.03;5041041;28;20124;-73
2023/11/26 09:06:11;;;;;;;32.55;21.27;;;;;;;4.16;100.00;101488.66;5044193;28;20060;-75
2023/11/26 09:08:37;;;;;;;36.78;20.90;;;;;;;4.19;100.00;101491.41;5042011;28;20020;-73
2023/11/26 09:11:03;;;;;;;34.42;20.40;;;;;;;4.23;100.00;101489.78;5042879;28;20030;-75
2023/11/26 09:13:29;;;;;;;32.78;20.13;;;;;;;4.25;100.00;101495.09;5041858;28;20075;-76
2023/11/26 09:15:55;;;;;;;33.15;20.48;;;;;;;4.26;100.00;101496.88;5041775;28;20083;-75
2023/11/26 09:18:21;;;;;;;32.42;20.02;;;;;;;4.29;100.00;101497.00;5044107;28;20033;-74
2023/11/26 09:20:48;;;;;;;34.33;19.63;;;;;;;4.31;100.00;101495.34;5041222;28;20436;-73
2023/11/26 09:23:13;;;;;;;31.25;20.30;;;;;;;4.35;100.00;101494.63;5044122;28;20376;-75
2023/11/26 09:25:39;;;;;;;30.10;19.67;;;;;;;4.42;100.00;101490.53;5041368;28;20038;-75
2023/11/26 09:28:05;;;;;;;31.83;18.70;;;;;;;4.45;100.00;101482.81;5041649;28;20033;-76
2023/11/26 09:30:31;;;;;;;28.60;17.83;;;;;;;4.50;100.00;101487.41;5042971;28;20033;-75
2023/11/26 09:32:56;;;;;;;31.15;17.92;;;;;;;4.55;100.00;101490.19;5041876;28;20026;-75
2023/11/26 09:35:22;;;;;;;29.70;17.63;;;;;;;4.57;100.00;101488.50;5043704;28;20033;-76
2023/11/26 09:37:47;;;;;;;30.17;17.23;;;;;;;4.57;100.00;101487.63;5040735;28;20034;-76
2023/11/26 09:40:13;;;;;;;29.25;16.92;;;;;;;4.65;100.00;101486.22;5043937;28;20032;-75
2023/11/26 09:42:40;;;;;;;28.48;16.75;;;;;;;4.67;100.00;101489.78;5044124;28;20044;-75
2023/11/26 09:45:09;;;;;;;28.92;16.48;;;;;;;4.75;100.00;101487.44;5047043;28;20030;-72
2023/11/26 09:47:34;;;;;;;28.15;16.45;;;;;;;4.81;100.00;101495.56;5045978;28;20124;-72
2023/11/26 09:49:59;;;;;;;27.45;15.98;;;;;;;4.87;100.00;101485.31;5046328;28;20100;-71
2023/11/26 09:52:26;;;;;;;32.80;16.42;;;;;;;4.93;100.00;101482.91;5047138;28;20053;-74
2023/11/26 09:54:55;;;;;;;27.65;15.57;;;;;;;4.99;100.00;101490.09;5044740;28;20111;-72
2023/11/26 09:57:20;;;;;;;27.23;14.98;;;;;;;5.03;100.00;101489.38;5047801;28;20029;-72
2023/11/26 09:59:46;;;;;;;26.50;14.18;;;;;;;5.07;100.00;101486.94;5044519;28;20032;-73
2023/11/26 10:02:11;;;;;;;28.05;13.65;;;;;;;5.10;100.00;101483.53;5047430;28;20068;-71
2023/11/26 10:04:47;;;;;;;26.45;13.13;;;;;;;5.13;100.00;101477.53;5044340;28;20090;-71
2023/11/26 10:07:12;;;;;;;26.15;13.65;;;;;;;5.15;100.00;101481.97;5047695;28;20037;-71
2023/11/26 10:09:38;;;;;;;25.42;12.70;;;;;;;5.24;100.00;101481.41;5045013;28;20434;-72
2023/11/26 10:12:04;;;;;;;25.77;13.10;;;;;;;5.36;100.00;101478.38;5046355;28;20026;-73
2023/11/26 10:14:29;;;;;;;25.23;12.75;;;;;;;5.45;100.00;101470.81;5046180;28;20387;-72
2023/11/26 10:16:55;;;;;;;24.60;11.95;;;;;;;5.48;100.00;101475.28;5044716;28;20075;-72
2023/11/26 10:19:25;;;;;;;27.20;11.95;;;;;;;5.54;100.00;101479.00;5047643;28;20025;-72
2023/11/26 10:21:56;;;;;;;23.63;11.60;;;;;;;5.56;100.00;101474.72;5044166;28;20140;-73
2023/11/26 10:24:24;;;;;;;23.80;10.98;;;;;;;5.65;100.00;101465.34;5047069;28;20029;-72
2023/11/26 10:26:52;;;;;;;24.30;10.15;;;;;;;5.70;100.00;101469.03;5044073;28;20464;-72
2023/11/26 10:29:20;;;;;;;23.30;10.00;;;;;;;5.78;100.00;101462.31;5047584;28;20074;-72
2023/11/26 10:31:57;;;;;;;21.63;8.82;;;;;;;5.83;100.00;101465.09;5040071;28;20030;-71
2023/11/26 10:34:22;;;;;;;21.70;8.43;;;;;;;5.77;100.00;101457.91;5041211;28;20040;-71
2023/11/26 10:36:48;;;;;;;21.63;7.63;;;;;;;5.75;100.00;101446.47;5047399;28;20024;-72
2023/11/26 10:39:14;;;;;;;20.77;7.60;;;;;;;5.75;100.00;101447.38;5043738;28;20061;-72
2023/11/26 10:41:40;;;;;;;21.85;8.05;;;;;;;5.84;100.00;101444.16;5046468;28;20388;-71
2023/11/26 10:44:07;;;;;;;22.35;7.90;;;;;;;5.90;100.00;101444.34;5044938;28;20032;-72
2023/11/26 10:46:34;;;;;;;21.65;8.15;;;;;;;5.93;100.00;101441.84;5045362;28;20033;-71
2023/11/26 10:49:07;;;;;;;20.25;7.47;;;;;;;5.93;100.00;101440.94;5045518;28;20028;-71
2023/11/26 10:51:38;;;;;;;20.30;6.80;;;;;;;5.95;100.00;101439.25;5045398;28;20036;-74
2023/11/26 10:54:18;;;;;;;21.80;6.68;;;;;;;6.00;100.00;101437.72;5044380;28;20028;-73
2023/11/26 10:56:47;;;;;;;20.73;6.50;;;;;;;6.10;100.00;101438.88;5046720;28;20037;-72
2023/11/26 10:59:22;;;;;;;19.55;6.10;;;;;;;6.09;100.00;101430.13;5043647;28;20099;-72
2023/11/26 11:01:48;;;;;;;21.08;5.97;;;;;;;6.07;100.00;101423.03;5039714;28;20041;-72
2023/11/26 11:04:15;;;;;;;18.70;5.60;;;;;;;6.05;100.00;101430.00;5046826;28;20530;-72
2023/11/26 11:06:43;;;;;;;20.60;6.28;;;;;;;6.09;100.00;101435.38;5043774;28;20025;-72
2023/11/26 11:09:13;;;;;;;19.65;5.60;;;;;;;6.13;100.00;101433.75;5045418;28;20061;-71